sensor_id;sensor_type;location;lat;lon;timestamp;P1;durP1;ratioP1;P2;durP2;ratioP2
19482;SDS011;9882;51.166;6.992;2024-01-06T00:00:57;8.98;;;4.45;;
19482;SDS011;9882;51.166;6.992;2024-01-06T00:03:26;7.95;;;4.38;;
19482;SDS011;9882;51.166;6.992;2024-01-06T00:05:54;8.45;;;4.07;;
19482;SDS011;9882;51.166;6.992;2024-01-06T00:08:23;7.70;;;3.78;;
19482;SDS011;9882;51.166;6.992;2024-01-06T00:10:52;9.23;;;4.28;;
19482;SDS011;9882;51.166;6.992;2024-01-06T00:13:21;7.50;;;3.75;;
19482;SDS011;9882;51.166;6.992;2024-01-06T00:15:50;10.57;;;4.63;;
19482;SDS011;9882;51.166;6.992;2024-01-06T00:18:20;8.13;;;4.15;;
19482;SDS011;9882;51.166;6.992;2024-01-06T00:20:49;8.55;;;4.15;;
19482;SDS011;9882;51.166;6.992;2024-01-06T00:23:18;8.52;;;3.55;;
19482;SDS011;9882;51.166;6.992;2024-01-06T00:25:46;10.70;;;5.47;;
19482;SDS011;9882;51.166;6.992;2024-01-06T00:28:15;10.73;;;4.60;;
19482;SDS011;9882;51.166;6.992;2024-01-06T00:30:43;12.48;;;4.97;;
19482;SDS011;9882;51.166;6.992;2024-01-06T00:33:12;8.57;;;4.32;;
19482;SDS011;9882;51.166;6.992;2024-01-06T00:35:42;7.30;;;3.97;;
19482;SDS011;9882;51.166;6.992;2024-01-06T00:38:11;14.20;;;5.22;;
19482;SDS011;9882;51.166;6.992;2024-01-06T00:40:39;17.52;;;5.22;;
19482;SDS011;9882;51.166;6.992;2024-01-06T00:43:08;9.50;;;4.97;;
19482;SDS011;9882;51.166;6.992;2024-01-06T00:45:37;13.52;;;5.07;;
19482;SDS011;9882;51.166;6.992;2024-01-06T00:48:06;12.85;;;5.20;;
19482;SDS011;9882;51.166;6.992;2024-01-06T00:50:34;13.07;;;5.13;;
19482;SDS011;9882;51.166;6.992;2024-01-06T00:53:04;10.98;;;5.30;;
19482;SDS011;9882;51.166;6.992;2024-01-06T00:55:33;10.35;;;5.00;;
19482;SDS011;9882;51.166;6.992;2024-01-06T00:58:02;10.70;;;4.72;;
19482;SDS011;9882;51.166;6.992;2024-01-06T01:00:31;15.68;;;5.13;;
19482;SDS011;9882;51.166;6.992;2024-01-06T01:02:59;15.00;;;5.88;;
19482;SDS011;9882;51.166;6.992;2024-01-06T01:05:28;12.40;;;5.43;;
19482;SDS011;9882;51.166;6.992;2024-01-06T01:07:57;15.07;;;5.93;;
19482;SDS011;9882;51.166;6.992;2024-01-06T01:10:27;12.70;;;5.47;;
19482;SDS011;9882;51.166;6.992;2024-01-06T01:12:55;13.35;;;5.85;;
19482;SDS011;9882;51.166;6.992;2024-01-06T01:15:24;12.05;;;4.97;;
19482;SDS011;9882;51.166;6.992;2024-01-06T01:17:53;17.80;;;5.88;;
19482;SDS011;9882;51.166;6.992;2024-01-06T01:20:21;14.25;;;4.55;;
19482;SDS011;9882;51.166;6.992;2024-01-06T01:22:50;13.73;;;5.03;;
19482;SDS011;9882;51.166;6.992;2024-01-06T01:25:19;16.02;;;6.28;;
19482;SDS011;9882;51.166;6.992;2024-01-06T01:27:49;12.55;;;5.13;;
19482;SDS011;9882;51.166;6.992;2024-01-06T01:30:17;14.15;;;5.55;;
19482;SDS011;9882;51.166;6.992;2024-01-06T01:32:46;12.35;;;4.97;;
19482;SDS011;9882;51.166;6.992;2024-01-06T01:35:15;14.57;;;5.60;;
19482;SDS011;9882;51.166;6.992;2024-01-06T01:37:43;14.20;;;5.45;;
19482;SDS011;9882;51.166;6.992;2024-01-06T01:40:12;14.90;;;6.00;;
19482;SDS011;9882;51.166;6.992;2024-01-06T01:42:41;14.25;;;5.65;;
19482;SDS011;9882;51.166;6.992;2024-01-06T01:45:12;12.50;;;5.25;;
19482;SDS011;9882;51.166;6.992;2024-01-06T01:47:40;15.68;;;5.85;;
19482;SDS011;9882;51.166;6.992;2024-01-06T01:50:09;14.75;;;5.18;;
19482;SDS011;9882;51.166;6.992;2024-01-06T01:52:39;19.55;;;5.75;;
19482;SDS011;9882;51.166;6.992;2024-01-06T01:55:10;13.07;;;5.50;;
19482;SDS011;9882;51.166;6.992;2024-01-06T01:57:38;20.58;;;7.07;;
19482;SDS011;9882;51.166;6.992;2024-01-06T02:00:08;15.05;;;5.25;;
19482;SDS011;9882;51.166;6.992;2024-01-06T02:02:39;18.55;;;6.07;;
19482;SDS011;9882;51.166;6.992;2024-01-06T02:05:07;19.70;;;6.93;;
19482;SDS011;9882;51.166;6.992;2024-01-06T02:07:36;16.08;;;5.18;;
19482;SDS011;9882;51.166;6.992;2024-01-06T02:10:05;12.15;;;4.80;;
19482;SDS011;9882;51.166;6.992;2024-01-06T02:12:35;16.80;;;6.57;;
19482;SDS011;9882;51.166;6.992;2024-01-06T02:15:06;17.73;;;6.47;;
19482;SDS011;9882;51.166;6.992;2024-01-06T02:17:35;16.70;;;5.68;;
19482;SDS011;9882;51.166;6.992;2024-01-06T02:20:05;19.00;;;6.45;;
19482;SDS011;9882;51.166;6.992;2024-01-06T02:22:37;15.50;;;5.90;;
19482;SDS011;9882;51.166;6.992;2024-01-06T02:25:06;15.05;;;5.45;;
19482;SDS011;9882;51.166;6.992;2024-01-06T02:27:39;14.25;;;5.38;;
19482;SDS011;9882;51.166;6.992;2024-01-06T02:30:08;17.45;;;6.60;;
19482;SDS011;9882;51.166;6.992;2024-01-06T02:32:37;17.40;;;5.65;;
19482;SDS011;9882;51.166;6.992;2024-01-06T02:35:06;16.45;;;5.63;;
19482;SDS011;9882;51.166;6.992;2024-01-06T02:37:37;18.55;;;6.85;;
19482;SDS011;9882;51.166;6.992;2024-01-06T02:40:06;14.93;;;5.65;;
19482;SDS011;9882;51.166;6.992;2024-01-06T02:42:35;17.27;;;5.93;;
19482;SDS011;9882;51.166;6.992;2024-01-06T02:45:04;17.38;;;6.20;;
19482;SDS011;9882;51.166;6.992;2024-01-06T02:47:34;13.20;;;5.57;;
19482;SDS011;9882;51.166;6.992;2024-01-06T02:50:03;19.17;;;6.15;;
19482;SDS011;9882;51.166;6.992;2024-01-06T02:52:32;17.08;;;7.05;;
19482;SDS011;9882;51.166;6.992;2024-01-06T02:55:03;16.92;;;6.35;;
19482;SDS011;9882;51.166;6.992;2024-01-06T02:57:32;11.35;;;4.82;;
19482;SDS011;9882;51.166;6.992;2024-01-06T03:00:01;18.65;;;6.78;;
19482;SDS011;9882;51.166;6.992;2024-01-06T03:02:30;19.55;;;7.25;;
19482;SDS011;9882;51.166;6.992;2024-01-06T03:04:59;18.15;;;6.28;;
19482;SDS011;9882;51.166;6.992;2024-01-06T03:07:28;17.15;;;7.03;;
19482;SDS011;9882;51.166;6.992;2024-01-06T03:09:57;17.10;;;5.75;;
19482;SDS011;9882;51.166;6.992;2024-01-06T03:12:27;18.17;;;6.63;;
19482;SDS011;9882;51.166;6.992;2024-01-06T03:14:55;16.77;;;6.10;;
19482;SDS011;9882;51.166;6.992;2024-01-06T03:17:24;13.68;;;6.40;;
19482;SDS011;9882;51.166;6.992;2024-01-06T03:19:52;16.52;;;5.82;;
19482;SDS011;9882;51.166;6.992;2024-01-06T03:22:21;18.70;;;7.20;;
19482;SDS011;9882;51.166;6.992;2024-01-06T03:24:49;22.75;;;7.93;;
19482;SDS011;9882;51.166;6.992;2024-01-06T03:27:18;16.55;;;6.38;;
19482;SDS011;9882;51.166;6.992;2024-01-06T03:29:48;23.73;;;8.30;;
19482;SDS011;9882;51.166;6.992;2024-01-06T03:32:17;16.63;;;7.45;;
19482;SDS011;9882;51.166;6.992;2024-01-06T03:34:45;19.55;;;7.07;;
19482;SDS011;9882;51.166;6.992;2024-01-06T03:37:14;20.52;;;7.65;;
19482;SDS011;9882;51.166;6.992;2024-01-06T03:39:42;17.48;;;6.38;;
19482;SDS011;9882;51.166;6.992;2024-01-06T03:42:11;19.00;;;6.80;;
19482;SDS011;9882;51.166;6.992;2024-01-06T03:44:39;18.27;;;6.90;;
19482;SDS011;9882;51.166;6.992;2024-01-06T03:47:09;21.42;;;7.97;;
19482;SDS011;9882;51.166;6.992;2024-01-06T03:49:38;16.35;;;6.28;;
19482;SDS011;9882;51.166;6.992;2024-01-06T03:52:07;18.80;;;7.60;;
19482;SDS011;9882;51.166;6.992;2024-01-06T03:54:35;21.10;;;6.57;;
19482;SDS011;9882;51.166;6.992;2024-01-06T03:57:04;19.20;;;7.95;;
19482;SDS011;9882;51.166;6.992;2024-01-06T03:59:32;20.52;;;7.40;;
19482;SDS011;9882;51.166;6.992;2024-01-06T04:02:00;21.25;;;6.45;;
19482;SDS011;9882;51.166;6.992;2024-01-06T04:04:30;19.80;;;6.38;;
19482;SDS011;9882;51.166;6.992;2024-01-06T04:06:58;20.25;;;7.50;;
19482;SDS011;9882;51.166;6.992;2024-01-06T04:09:28;23.83;;;6.53;;
19482;SDS011;9882;51.166;6.992;2024-01-06T04:11:57;21.52;;;7.68;;
19482;SDS011;9882;51.166;6.992;2024-01-06T04:14:27;18.10;;;7.28;;
19482;SDS011;9882;51.166;6.992;2024-01-06T04:16:56;22.95;;;8.10;;
19482;SDS011;9882;51.166;6.992;2024-01-06T04:19:24;23.35;;;8.07;;
19482;SDS011;9882;51.166;6.992;2024-01-06T04:21:55;23.80;;;8.45;;
19482;SDS011;9882;51.166;6.992;2024-01-06T04:24:23;19.05;;;6.80;;
19482;SDS011;9882;51.166;6.992;2024-01-06T04:26:52;22.80;;;8.80;;
19482;SDS011;9882;51.166;6.992;2024-01-06T04:29:20;19.45;;;7.82;;
19482;SDS011;9882;51.166;6.992;2024-01-06T04:31:49;20.65;;;8.07;;
19482;SDS011;9882;51.166;6.992;2024-01-06T04:34:18;23.23;;;8.07;;
19482;SDS011;9882;51.166;6.992;2024-01-06T04:36:47;27.88;;;8.80;;
19482;SDS011;9882;51.166;6.992;2024-01-06T04:39:17;15.98;;;7.03;;
19482;SDS011;9882;51.166;6.992;2024-01-06T04:41:46;22.05;;;8.75;;
19482;SDS011;9882;51.166;6.992;2024-01-06T04:44:15;29.00;;;9.77;;
19482;SDS011;9882;51.166;6.992;2024-01-06T04:46:43;25.00;;;9.45;;
19482;SDS011;9882;51.166;6.992;2024-01-06T04:49:12;22.45;;;8.52;;
19482;SDS011;9882;51.166;6.992;2024-01-06T04:51:41;26.40;;;9.80;;
19482;SDS011;9882;51.166;6.992;2024-01-06T04:54:09;24.15;;;8.80;;
19482;SDS011;9882;51.166;6.992;2024-01-06T04:56:39;22.75;;;8.07;;
19482;SDS011;9882;51.166;6.992;2024-01-06T04:59:08;23.95;;;8.63;;
19482;SDS011;9882;51.166;6.992;2024-01-06T05:01:37;28.20;;;7.60;;
19482;SDS011;9882;51.166;6.992;2024-01-06T05:04:05;19.38;;;6.95;;
19482;SDS011;9882;51.166;6.992;2024-01-06T05:06:34;21.05;;;7.07;;
19482;SDS011;9882;51.166;6.992;2024-01-06T05:09:02;20.50;;;7.50;;
19482;SDS011;9882;51.166;6.992;2024-01-06T05:11:31;18.77;;;6.88;;
19482;SDS011;9882;51.166;6.992;2024-01-06T05:14:01;18.13;;;6.28;;
19482;SDS011;9882;51.166;6.992;2024-01-06T05:16:30;16.02;;;5.93;;
19482;SDS011;9882;51.166;6.992;2024-01-06T05:18:59;19.85;;;6.38;;
19482;SDS011;9882;51.166;6.992;2024-01-06T05:21:27;16.00;;;6.13;;
19482;SDS011;9882;51.166;6.992;2024-01-06T05:23:56;19.65;;;6.40;;
19482;SDS011;9882;51.166;6.992;2024-01-06T05:26:25;17.73;;;6.60;;
19482;SDS011;9882;51.166;6.992;2024-01-06T05:28:53;23.23;;;6.95;;
19482;SDS011;9882;51.166;6.992;2024-01-06T05:31:23;15.60;;;5.65;;
19482;SDS011;9882;51.166;6.992;2024-01-06T05:33:52;18.55;;;6.10;;
19482;SDS011;9882;51.166;6.992;2024-01-06T05:36:21;15.90;;;5.90;;
19482;SDS011;9882;51.166;6.992;2024-01-06T05:38:49;17.63;;;5.45;;
19482;SDS011;9882;51.166;6.992;2024-01-06T05:41:19;15.40;;;5.40;;
19482;SDS011;9882;51.166;6.992;2024-01-06T05:43:47;14.45;;;5.55;;
19482;SDS011;9882;51.166;6.992;2024-01-06T05:46:20;16.95;;;5.85;;
19482;SDS011;9882;51.166;6.992;2024-01-06T05:48:51;12.02;;;4.95;;
19482;SDS011;9882;51.166;6.992;2024-01-06T05:51:19;15.23;;;5.18;;
19482;SDS011;9882;51.166;6.992;2024-01-06T05:53:48;17.08;;;5.60;;
19482;SDS011;9882;51.166;6.992;2024-01-06T05:56:21;13.65;;;4.45;;
19482;SDS011;9882;51.166;6.992;2024-01-06T05:58:52;15.10;;;5.25;;
19482;SDS011;9882;51.166;6.992;2024-01-06T06:01:21;12.25;;;4.80;;
19482;SDS011;9882;51.166;6.992;2024-01-06T06:03:51;11.85;;;4.88;;
19482;SDS011;9882;51.166;6.992;2024-01-06T06:06:19;16.90;;;5.00;;
19482;SDS011;9882;51.166;6.992;2024-01-06T06:08:48;13.82;;;5.25;;
19482;SDS011;9882;51.166;6.992;2024-01-06T06:11:17;15.10;;;4.70;;
19482;SDS011;9882;51.166;6.992;2024-01-06T06:13:45;15.00;;;4.50;;
19482;SDS011;9882;51.166;6.992;2024-01-06T06:16:14;14.98;;;5.63;;
19482;SDS011;9882;51.166;6.992;2024-01-06T06:18:42;16.60;;;5.68;;
19482;SDS011;9882;51.166;6.992;2024-01-06T06:21:12;16.30;;;5.20;;
19482;SDS011;9882;51.166;6.992;2024-01-06T06:23:41;14.65;;;5.15;;
19482;SDS011;9882;51.166;6.992;2024-01-06T06:26:09;22.13;;;6.28;;
19482;SDS011;9882;51.166;6.992;2024-01-06T06:28:38;18.88;;;5.03;;
19482;SDS011;9882;51.166;6.992;2024-01-06T06:31:07;13.95;;;4.80;;
19482;SDS011;9882;51.166;6.992;2024-01-06T06:33:36;18.50;;;5.32;;
19482;SDS011;9882;51.166;6.992;2024-01-06T06:36:05;14.85;;;5.43;;
19482;SDS011;9882;51.166;6.992;2024-01-06T06:38:35;14.15;;;4.63;;
19482;SDS011;9882;51.166;6.992;2024-01-06T06:41:04;16.35;;;5.78;;
19482;SDS011;9882;51.166;6.992;2024-01-06T06:43:33;18.42;;;5.45;;
19482;SDS011;9882;51.166;6.992;2024-01-06T06:46:02;10.05;;;4.03;;
19482;SDS011;9882;51.166;6.992;2024-01-06T06:48:31;12.15;;;5.43;;
19482;SDS011;9882;51.166;6.992;2024-01-06T06:51:00;16.45;;;5.00;;
19482;SDS011;9882;51.166;6.992;2024-01-06T06:53:29;15.18;;;4.50;;
19482;SDS011;9882;51.166;6.992;2024-01-06T06:55:59;15.80;;;5.95;;
19482;SDS011;9882;51.166;6.992;2024-01-06T06:58:27;10.52;;;3.90;;
19482;SDS011;9882;51.166;6.992;2024-01-06T07:00:56;14.88;;;4.47;;
19482;SDS011;9882;51.166;6.992;2024-01-06T07:03:25;14.82;;;4.82;;
19482;SDS011;9882;51.166;6.992;2024-01-06T07:05:53;18.98;;;5.18;;
19482;SDS011;9882;51.166;6.992;2024-01-06T07:08:22;14.48;;;4.78;;
19482;SDS011;9882;51.166;6.992;2024-01-06T07:10:50;9.18;;;4.00;;
19482;SDS011;9882;51.166;6.992;2024-01-06T07:13:20;11.95;;;4.53;;
19482;SDS011;9882;51.166;6.992;2024-01-06T07:15:49;12.43;;;4.35;;
19482;SDS011;9882;51.166;6.992;2024-01-06T07:18:18;13.88;;;5.07;;
19482;SDS011;9882;51.166;6.992;2024-01-06T07:20:50;13.60;;;4.70;;
19482;SDS011;9882;51.166;6.992;2024-01-06T07:23:18;17.48;;;5.07;;
19482;SDS011;9882;51.166;6.992;2024-01-06T07:25:47;13.38;;;4.88;;
19482;SDS011;9882;51.166;6.992;2024-01-06T07:28:16;14.63;;;4.65;;
19482;SDS011;9882;51.166;6.992;2024-01-06T07:30:46;12.05;;;4.90;;
19482;SDS011;9882;51.166;6.992;2024-01-06T07:33:14;12.88;;;4.28;;
19482;SDS011;9882;51.166;6.992;2024-01-06T07:35:43;16.42;;;5.40;;
19482;SDS011;9882;51.166;6.992;2024-01-06T07:38:12;11.05;;;5.05;;
19482;SDS011;9882;51.166;6.992;2024-01-06T07:40:41;12.45;;;4.53;;
19482;SDS011;9882;51.166;6.992;2024-01-06T07:43:11;16.92;;;5.75;;
19482;SDS011;9882;51.166;6.992;2024-01-06T07:45:42;14.85;;;5.78;;
19482;SDS011;9882;51.166;6.992;2024-01-06T07:48:12;15.88;;;6.05;;
19482;SDS011;9882;51.166;6.992;2024-01-06T07:50:40;19.15;;;6.35;;
19482;SDS011;9882;51.166;6.992;2024-01-06T07:53:09;17.15;;;5.00;;
19482;SDS011;9882;51.166;6.992;2024-01-06T07:55:39;14.68;;;5.28;;
19482;SDS011;9882;51.166;6.992;2024-01-06T07:58:07;11.60;;;4.35;;
19482;SDS011;9882;51.166;6.992;2024-01-06T08:00:36;15.88;;;5.75;;
19482;SDS011;9882;51.166;6.992;2024-01-06T08:03:05;14.05;;;5.45;;
19482;SDS011;9882;51.166;6.992;2024-01-06T08:05:35;14.95;;;5.10;;
19482;SDS011;9882;51.166;6.992;2024-01-06T08:08:04;19.05;;;6.18;;
19482;SDS011;9882;51.166;6.992;2024-01-06T08:10:33;16.98;;;5.78;;
19482;SDS011;9882;51.166;6.992;2024-01-06T08:13:02;17.98;;;6.35;;
19482;SDS011;9882;51.166;6.992;2024-01-06T08:15:31;20.00;;;6.03;;
19482;SDS011;9882;51.166;6.992;2024-01-06T08:18:00;14.68;;;5.07;;
19482;SDS011;9882;51.166;6.992;2024-01-06T08:20:28;16.15;;;5.38;;
19482;SDS011;9882;51.166;6.992;2024-01-06T08:22:58;14.07;;;5.78;;
19482;SDS011;9882;51.166;6.992;2024-01-06T08:25:27;18.50;;;6.93;;
19482;SDS011;9882;51.166;6.992;2024-01-06T08:27:56;16.25;;;4.78;;
19482;SDS011;9882;51.166;6.992;2024-01-06T08:30:24;17.00;;;5.80;;
19482;SDS011;9882;51.166;6.992;2024-01-06T08:32:53;11.40;;;4.38;;
19482;SDS011;9882;51.166;6.992;2024-01-06T08:35:22;12.80;;;4.97;;
19482;SDS011;9882;51.166;6.992;2024-01-06T08:37:50;17.35;;;5.70;;
19482;SDS011;9882;51.166;6.992;2024-01-06T08:40:20;13.73;;;5.18;;
19482;SDS011;9882;51.166;6.992;2024-01-06T08:42:49;13.93;;;4.95;;
19482;SDS011;9882;51.166;6.992;2024-01-06T08:45:17;13.20;;;5.63;;
19482;SDS011;9882;51.166;6.992;2024-01-06T08:47:46;17.95;;;6.15;;
19482;SDS011;9882;51.166;6.992;2024-01-06T08:50:14;13.43;;;4.63;;
19482;SDS011;9882;51.166;6.992;2024-01-06T08:52:43;16.13;;;5.57;;
19482;SDS011;9882;51.166;6.992;2024-01-06T08:55:12;21.95;;;7.38;;
19482;SDS011;9882;51.166;6.992;2024-01-06T08:57:42;15.95;;;5.82;;
19482;SDS011;9882;51.166;6.992;2024-01-06T09:00:11;14.68;;;5.47;;
19482;SDS011;9882;51.166;6.992;2024-01-06T09:02:41;14.35;;;6.13;;
19482;SDS011;9882;51.166;6.992;2024-01-06T09:05:09;15.40;;;5.03;;
19482;SDS011;9882;51.166;6.992;2024-01-06T09:07:38;19.00;;;5.72;;
19482;SDS011;9882;51.166;6.992;2024-01-06T09:10:07;19.00;;;5.60;;
19482;SDS011;9882;51.166;6.992;2024-01-06T09:12:36;14.90;;;5.93;;
19482;SDS011;9882;51.166;6.992;2024-01-06T09:15:07;12.15;;;5.28;;
19482;SDS011;9882;51.166;6.992;2024-01-06T09:17:36;15.77;;;5.78;;
19482;SDS011;9882;51.166;6.992;2024-01-06T09:20:05;19.23;;;6.20;;
19482;SDS011;9882;51.166;6.992;2024-01-06T09:22:34;17.95;;;5.72;;
19482;SDS011;9882;51.166;6.992;2024-01-06T09:25:03;15.52;;;5.20;;
19482;SDS011;9882;51.166;6.992;2024-01-06T09:27:33;17.55;;;6.55;;
19482;SDS011;9882;51.166;6.992;2024-01-06T09:30:01;19.65;;;6.38;;
19482;SDS011;9882;51.166;6.992;2024-01-06T09:32:31;21.27;;;6.72;;
19482;SDS011;9882;51.166;6.992;2024-01-06T09:35:00;10.43;;;5.05;;
19482;SDS011;9882;51.166;6.992;2024-01-06T09:37:29;14.10;;;5.28;;
19482;SDS011;9882;51.166;6.992;2024-01-06T09:39:57;15.55;;;4.93;;
19482;SDS011;9882;51.166;6.992;2024-01-06T09:42:26;16.02;;;4.63;;
19482;SDS011;9882;51.166;6.992;2024-01-06T09:44:55;20.15;;;6.20;;
19482;SDS011;9882;51.166;6.992;2024-01-06T09:47:24;18.42;;;5.05;;
19482;SDS011;9882;51.166;6.992;2024-01-06T09:49:57;17.95;;;5.53;;
19482;SDS011;9882;51.166;6.992;2024-01-06T09:52:31;16.27;;;5.30;;
19482;SDS011;9882;51.166;6.992;2024-01-06T09:55:00;26.90;;;5.72;;
19482;SDS011;9882;51.166;6.992;2024-01-06T09:57:36;19.48;;;5.80;;
19482;SDS011;9882;51.166;6.992;2024-01-06T10:00:06;18.90;;;6.38;;
19482;SDS011;9882;51.166;6.992;2024-01-06T10:02:39;22.40;;;6.53;;
19482;SDS011;9882;51.166;6.992;2024-01-06T10:05:11;16.02;;;5.47;;
19482;SDS011;9882;51.166;6.992;2024-01-06T10:07:41;19.83;;;5.45;;
19482;SDS011;9882;51.166;6.992;2024-01-06T10:10:10;22.70;;;7.75;;
19482;SDS011;9882;51.166;6.992;2024-01-06T10:12:39;18.83;;;6.35;;
19482;SDS011;9882;51.166;6.992;2024-01-06T10:15:09;22.75;;;7.07;;
19482;SDS011;9882;51.166;6.992;2024-01-06T10:17:39;27.92;;;8.68;;
19482;SDS011;9882;51.166;6.992;2024-01-06T10:20:09;26.13;;;8.48;;
19482;SDS011;9882;51.166;6.992;2024-01-06T10:22:41;23.50;;;8.55;;
19482;SDS011;9882;51.166;6.992;2024-01-06T10:25:11;23.60;;;7.85;;
19482;SDS011;9882;51.166;6.992;2024-01-06T10:27:41;26.38;;;8.38;;
19482;SDS011;9882;51.166;6.992;2024-01-06T10:30:10;26.08;;;8.63;;
19482;SDS011;9882;51.166;6.992;2024-01-06T10:32:44;22.30;;;8.00;;
19482;SDS011;9882;51.166;6.992;2024-01-06T10:35:13;22.30;;;8.00;;
19482;SDS011;9882;51.166;6.992;2024-01-06T10:37:43;21.55;;;7.75;;
19482;SDS011;9882;51.166;6.992;2024-01-06T10:40:13;27.40;;;8.70;;
19482;SDS011;9882;51.166;6.992;2024-01-06T10:42:44;22.60;;;7.93;;
19482;SDS011;9882;51.166;6.992;2024-01-06T10:45:13;19.88;;;6.60;;
19482;SDS011;9882;51.166;6.992;2024-01-06T10:47:43;30.55;;;8.93;;
19482;SDS011;9882;51.166;6.992;2024-01-06T10:50:13;26.15;;;9.07;;
19482;SDS011;9882;51.166;6.992;2024-01-06T10:52:46;30.17;;;8.23;;
19482;SDS011;9882;51.166;6.992;2024-01-06T10:55:16;37.50;;;8.32;;
19482;SDS011;9882;51.166;6.992;2024-01-06T10:57:46;19.73;;;7.88;;
19482;SDS011;9882;51.166;6.992;2024-01-06T11:00:18;28.95;;;8.02;;
19482;SDS011;9882;51.166;6.992;2024-01-06T11:02:46;33.53;;;10.18;;
19482;SDS011;9882;51.166;6.992;2024-01-06T11:05:19;33.15;;;10.40;;
19482;SDS011;9882;51.166;6.992;2024-01-06T11:07:50;29.48;;;9.68;;
19482;SDS011;9882;51.166;6.992;2024-01-06T11:10:22;25.42;;;10.13;;
19482;SDS011;9882;51.166;6.992;2024-01-06T11:13:05;26.08;;;8.27;;
19482;SDS011;9882;51.166;6.992;2024-01-06T11:15:40;33.13;;;10.00;;
19482;SDS011;9882;51.166;6.992;2024-01-06T11:21:17;28.70;;;9.65;;
19482;SDS011;9882;51.166;6.992;2024-01-06T11:26:49;29.92;;;9.68;;
19482;SDS011;9882;51.166;6.992;2024-01-06T11:29:19;30.30;;;9.52;;
19482;SDS011;9882;51.166;6.992;2024-01-06T11:34:46;25.60;;;9.35;;
19482;SDS011;9882;51.166;6.992;2024-01-06T11:37:17;29.02;;;9.15;;
19482;SDS011;9882;51.166;6.992;2024-01-06T11:39:53;24.33;;;7.85;;
19482;SDS011;9882;51.166;6.992;2024-01-06T11:42:22;24.40;;;8.60;;
19482;SDS011;9882;51.166;6.992;2024-01-06T11:45:04;22.67;;;7.65;;
19482;SDS011;9882;51.166;6.992;2024-01-06T11:47:36;28.42;;;8.82;;
19482;SDS011;9882;51.166;6.992;2024-01-06T11:50:05;34.67;;;9.68;;
19482;SDS011;9882;51.166;6.992;2024-01-06T11:52:34;27.58;;;8.55;;
19482;SDS011;9882;51.166;6.992;2024-01-06T11:55:05;28.65;;;8.98;;
19482;SDS011;9882;51.166;6.992;2024-01-06T11:57:35;27.60;;;8.93;;
19482;SDS011;9882;51.166;6.992;2024-01-06T12:00:05;30.15;;;8.27;;
19482;SDS011;9882;51.166;6.992;2024-01-06T12:02:34;30.40;;;10.48;;
19482;SDS011;9882;51.166;6.992;2024-01-06T12:05:03;33.10;;;9.57;;
19482;SDS011;9882;51.166;6.992;2024-01-06T12:07:32;28.98;;;8.65;;
19482;SDS011;9882;51.166;6.992;2024-01-06T12:10:01;28.40;;;9.63;;
19482;SDS011;9882;51.166;6.992;2024-01-06T12:12:32;28.42;;;9.82;;
19482;SDS011;9882;51.166;6.992;2024-01-06T12:15:01;27.42;;;9.75;;
19482;SDS011;9882;51.166;6.992;2024-01-06T12:17:30;25.88;;;9.77;;
19482;SDS011;9882;51.166;6.992;2024-01-06T12:19:59;25.20;;;9.57;;
19482;SDS011;9882;51.166;6.992;2024-01-06T12:22:28;28.08;;;8.50;;
19482;SDS011;9882;51.166;6.992;2024-01-06T12:24:58;23.25;;;7.65;;
19482;SDS011;9882;51.166;6.992;2024-01-06T12:27:27;21.52;;;6.38;;
19482;SDS011;9882;51.166;6.992;2024-01-06T12:29:57;29.77;;;8.60;;
19482;SDS011;9882;51.166;6.992;2024-01-06T12:32:27;25.92;;;8.90;;
19482;SDS011;9882;51.166;6.992;2024-01-06T12:34:56;22.65;;;8.10;;
19482;SDS011;9882;51.166;6.992;2024-01-06T12:37:26;18.50;;;7.05;;
19482;SDS011;9882;51.166;6.992;2024-01-06T12:39:56;21.20;;;6.60;;
19482;SDS011;9882;51.166;6.992;2024-01-06T12:42:25;23.85;;;6.70;;
19482;SDS011;9882;51.166;6.992;2024-01-06T12:44:55;20.27;;;6.03;;
19482;SDS011;9882;51.166;6.992;2024-01-06T12:47:29;21.38;;;8.13;;
19482;SDS011;9882;51.166;6.992;2024-01-06T12:49:58;20.02;;;6.35;;
19482;SDS011;9882;51.166;6.992;2024-01-06T12:52:27;17.30;;;5.70;;
19482;SDS011;9882;51.166;6.992;2024-01-06T12:54:55;25.27;;;8.15;;
19482;SDS011;9882;51.166;6.992;2024-01-06T12:57:24;21.42;;;6.18;;
19482;SDS011;9882;51.166;6.992;2024-01-06T12:59:53;19.30;;;6.72;;
19482;SDS011;9882;51.166;6.992;2024-01-06T13:02:22;18.67;;;6.13;;
19482;SDS011;9882;51.166;6.992;2024-01-06T13:04:52;19.10;;;7.13;;
19482;SDS011;9882;51.166;6.992;2024-01-06T13:07:22;23.55;;;7.25;;
19482;SDS011;9882;51.166;6.992;2024-01-06T13:09:50;19.67;;;6.70;;
19482;SDS011;9882;51.166;6.992;2024-01-06T13:12:19;24.50;;;8.93;;
19482;SDS011;9882;51.166;6.992;2024-01-06T13:14:50;23.88;;;7.20;;
19482;SDS011;9882;51.166;6.992;2024-01-06T13:17:19;19.92;;;7.40;;
19482;SDS011;9882;51.166;6.992;2024-01-06T13:19:48;27.90;;;9.07;;
19482;SDS011;9882;51.166;6.992;2024-01-06T13:22:18;29.13;;;9.63;;
19482;SDS011;9882;51.166;6.992;2024-01-06T13:24:48;21.73;;;7.38;;
19482;SDS011;9882;51.166;6.992;2024-01-06T13:27:19;22.05;;;7.53;;
19482;SDS011;9882;51.166;6.992;2024-01-06T13:29:47;26.25;;;9.27;;
19482;SDS011;9882;51.166;6.992;2024-01-06T13:32:16;23.48;;;7.95;;
19482;SDS011;9882;51.166;6.992;2024-01-06T13:34:46;26.38;;;8.68;;
19482;SDS011;9882;51.166;6.992;2024-01-06T13:37:14;36.63;;;12.32;;
19482;SDS011;9882;51.166;6.992;2024-01-06T13:39:45;27.30;;;9.35;;
19482;SDS011;9882;51.166;6.992;2024-01-06T13:42:13;27.30;;;9.18;;
19482;SDS011;9882;51.166;6.992;2024-01-06T13:44:44;31.45;;;10.30;;
19482;SDS011;9882;51.166;6.992;2024-01-06T13:47:12;30.15;;;9.45;;
19482;SDS011;9882;51.166;6.992;2024-01-06T13:49:41;32.28;;;10.40;;
19482;SDS011;9882;51.166;6.992;2024-01-06T13:52:09;26.10;;;9.75;;
19482;SDS011;9882;51.166;6.992;2024-01-06T13:54:38;28.42;;;9.43;;
19482;SDS011;9882;51.166;6.992;2024-01-06T13:57:08;29.48;;;8.60;;
19482;SDS011;9882;51.166;6.992;2024-01-06T13:59:37;30.27;;;9.75;;
19482;SDS011;9882;51.166;6.992;2024-01-06T14:02:12;27.88;;;8.77;;
19482;SDS011;9882;51.166;6.992;2024-01-06T14:04:41;24.52;;;7.90;;
19482;SDS011;9882;51.166;6.992;2024-01-06T14:07:09;26.45;;;8.60;;
19482;SDS011;9882;51.166;6.992;2024-01-06T14:09:38;24.83;;;7.65;;
19482;SDS011;9882;51.166;6.992;2024-01-06T14:12:08;30.50;;;9.02;;
19482;SDS011;9882;51.166;6.992;2024-01-06T14:14:37;25.75;;;8.90;;
19482;SDS011;9882;51.166;6.992;2024-01-06T14:17:06;28.30;;;8.90;;
19482;SDS011;9882;51.166;6.992;2024-01-06T14:19:35;25.55;;;8.57;;
19482;SDS011;9882;51.166;6.992;2024-01-06T14:22:03;21.35;;;7.20;;
19482;SDS011;9882;51.166;6.992;2024-01-06T14:24:32;20.00;;;7.15;;
19482;SDS011;9882;51.166;6.992;2024-01-06T14:27:03;23.42;;;8.73;;
19482;SDS011;9882;51.166;6.992;2024-01-06T14:29:33;26.77;;;9.00;;
19482;SDS011;9882;51.166;6.992;2024-01-06T14:32:03;23.70;;;7.60;;
19482;SDS011;9882;51.166;6.992;2024-01-06T14:34:32;28.60;;;8.73;;
19482;SDS011;9882;51.166;6.992;2024-01-06T14:37:01;21.42;;;7.53;;
19482;SDS011;9882;51.166;6.992;2024-01-06T14:39:30;23.95;;;8.40;;
19482;SDS011;9882;51.166;6.992;2024-01-06T14:41:59;23.55;;;7.53;;
19482;SDS011;9882;51.166;6.992;2024-01-06T14:44:27;22.55;;;7.35;;
19482;SDS011;9882;51.166;6.992;2024-01-06T14:46:58;25.20;;;7.10;;
19482;SDS011;9882;51.166;6.992;2024-01-06T14:49:26;20.45;;;7.10;;
19482;SDS011;9882;51.166;6.992;2024-01-06T14:51:55;18.60;;;6.95;;
19482;SDS011;9882;51.166;6.992;2024-01-06T14:54:24;15.65;;;5.75;;
19482;SDS011;9882;51.166;6.992;2024-01-06T14:56:52;16.45;;;6.15;;
19482;SDS011;9882;51.166;6.992;2024-01-06T14:59:21;21.33;;;7.53;;
19482;SDS011;9882;51.166;6.992;2024-01-06T15:01:50;22.52;;;6.25;;
19482;SDS011;9882;51.166;6.992;2024-01-06T15:04:20;18.25;;;6.05;;
19482;SDS011;9882;51.166;6.992;2024-01-06T15:06:49;17.52;;;6.70;;
19482;SDS011;9882;51.166;6.992;2024-01-06T15:09:17;21.10;;;6.30;;